Pagrindinis puslapis
METAR-TAF:

METAR-TAF

Oro uostai :

Kos, Graikija

platuma: 36-47N, ilguma: 027-04E, Aukštis: 129 m

Dabartinis oras

Ataskaita buvo paskelbta 34 minutes, ne 22:20 UTC
Vėjas 2 kt iš Pietų
Temperatūra 18°C
Drėgmė 83%
Slėgis 1017 hPa
Matomumas 10 km arba daugiau
Mažai debesys ne aukštis 2000 ft

METAR: LGKO 302220Z 17002KT 9999 FEW020 18/15 Q1017

Laikas: 01:54 (22:54 UTC)

Prognozė

Ataskaita buvo paskelbta 5 valandos ir 54 minutes, ne 17:00 UTC
Prognozė galioja nuo 30 metu 18 UTC su 31 metu 18 UTC
Vėjas 5 kt nuo kintamojo kryptimis
Matomumas 10 km arba daugiau
Mažai debesys ne aukštis 2000 ft
Tapsmas
nuo 31 metu 08 UTC su 31 metu 10 UTC
Vėjas 10 kt iš Pietų/Pietvakarių

TAF: LGKO 301700Z 3018/3118 VRB05KT 9999 FEW020 BECMG 3108/3110 20010KT

Orai ataskaitas ir orų prognozės (METAR, TAF).

turimą stotys yra geltonos ir raudonos taškus žemėlapyje.

Perkelti pele per norėdami pamatyti stoties vardą.

Tada spustelėkite, norėdami matyti oro stebėjimo ir prognozės.

Norėdami pakeisti žemėlapį: spustelėkite ant žalios mygtukų su juodo kryžiaus žemyn,; žalią mygtuką su brūkšneliu, jei norite nutolinti; arba žalių rodyklių gretimoms žemėlapius.


METAR-TAF: